Time;durP1;ratioP1;P1;durP2;ratioP2;P2;SDS_P1;SDS_P2;PMS_P1;PMS_P2;Temp;Humidity;BMP_temperature;BMP_pressure;BME280_temperature;BME280_humidity;BME280_pressure;Samples;Min_cycle;Max_cycle;Signal;HPM_P1;HPM_P2
2022/04/16 00:00:15;;;;;;;15.20;10.77;;;8.80;99.90;;;;;;5002104;28;20571;-60
2022/04/16 00:02:41;;;;;;;14.98;12.10;;;8.80;99.90;;;;;;5002238;28;20499;-59
2022/04/16 00:05:08;;;;;;;15.82;12.07;;;8.80;99.90;;;;;;5008214;28;20050;-59
2022/04/16 00:07:34;;;;;;;14.63;11.27;;;8.90;99.90;;;;;;5004854;28;20487;-60
2022/04/16 00:09:59;;;;;;;15.73;10.40;;;8.80;99.90;;;;;;5004556;28;20040;-60
2022/04/16 00:12:27;;;;;;;14.85;10.40;;;8.80;99.90;;;;;;4999868;28;20100;-60
2022/04/16 00:14:54;;;;;;;16.17;11.52;;;8.80;99.90;;;;;;5004361;28;20419;-61
2022/04/16 00:17:20;;;;;;;16.63;12.40;;;8.70;99.90;;;;;;5002639;28;20291;-59
2022/04/16 00:19:45;;;;;;;13.50;9.55;;;8.70;99.90;;;;;;4999413;28;20118;-60
2022/04/16 00:22:12;;;;;;;15.70;12.23;;;8.60;99.90;;;;;;5007786;28;20036;-59
2022/04/16 00:24:40;;;;;;;16.67;11.75;;;8.60;99.90;;;;;;4999682;28;20159;-60
2022/04/16 00:27:07;;;;;;;15.32;11.68;;;8.50;99.90;;;;;;5007343;28;20571;-60
2022/04/16 00:29:34;;;;;;;16.65;11.80;;;8.50;99.90;;;;;;5009545;28;20068;-60
2022/04/16 00:32:00;;;;;;;14.57;11.02;;;8.50;99.90;;;;;;4976100;28;20049;-60
2022/04/16 00:34:26;;;;;;;16.55;12.10;;;8.40;99.90;;;;;;5015625;28;20042;-61
2022/04/16 00:36:52;;;;;;;15.68;10.25;;;8.40;99.90;;;;;;5002005;28;20046;-60
2022/04/16 00:39:17;;;;;;;15.95;12.00;;;8.30;99.90;;;;;;5014597;28;20065;-61
2022/04/16 00:41:43;;;;;;;15.07;12.38;;;8.30;99.90;;;;;;5009479;28;20165;-61
2022/04/16 00:44:09;;;;;;;20.60;12.95;;;8.30;99.90;;;;;;5003666;28;20045;-61
2022/04/16 00:46:36;;;;;;;18.23;13.10;;;8.20;99.90;;;;;;4980259;28;20038;-59
2022/04/16 00:49:02;;;;;;;16.73;12.63;;;8.20;99.90;;;;;;4988519;28;20156;-60
2022/04/16 00:51:30;;;;;;;14.77;11.70;;;8.20;99.90;;;;;;5002801;28;20038;-59
2022/04/16 00:53:56;;;;;;;20.52;14.00;;;8.20;99.90;;;;;;4999678;28;22778;-59
2022/04/16 00:56:22;;;;;;;15.13;11.68;;;8.30;99.90;;;;;;5000654;28;20407;-60
2022/04/16 00:58:48;;;;;;;16.88;11.98;;;8.30;99.90;;;;;;4997515;28;20038;-59
2022/04/16 01:01:14;;;;;;;15.70;11.02;;;8.40;99.90;;;;;;5006846;28;20044;-60
2022/04/16 01:03:43;;;;;;;20.95;13.43;;;8.30;99.90;;;;;;5005510;28;20042;-60
2022/04/16 01:06:14;;;;;;;16.02;11.10;;;8.40;99.90;;;;;;5004726;28;20529;-61
2022/04/16 01:08:47;;;;;;;23.02;13.63;;;8.40;99.90;;;;;;4998552;28;20037;-60
2022/04/16 01:11:14;;;;;;;27.02;14.60;;;8.50;99.90;;;;;;5003345;28;20057;-61
2022/04/16 01:13:40;;;;;;;19.67;13.48;;;8.50;99.90;;;;;;5003207;28;20045;-60
2022/04/16 01:16:06;;;;;;;25.52;15.80;;;8.50;99.90;;;;;;4997542;28;20495;-61
2022/04/16 01:18:36;;;;;;;18.33;14.32;;;8.50;99.90;;;;;;4997176;28;20045;-58
2022/04/16 01:21:02;;;;;;;20.17;14.05;;;8.50;99.90;;;;;;5003195;28;20042;-60
2022/04/16 01:23:28;;;;;;;21.65;14.98;;;8.50;99.90;;;;;;5000511;28;20046;-59
2022/04/16 01:25:56;;;;;;;24.25;17.50;;;8.50;99.90;;;;;;4998081;28;20157;-61
2022/04/16 01:28:22;;;;;;;19.13;14.18;;;8.60;99.90;;;;;;5002501;28;20052;-60
2022/04/16 01:30:48;;;;;;;22.10;14.65;;;8.60;99.90;;;;;;5001738;28;20060;-60
2022/04/16 01:33:16;;;;;;;19.42;14.43;;;8.60;99.90;;;;;;5002905;28;20059;-61
2022/04/16 01:35:42;;;;;;;24.73;17.58;;;8.60;99.90;;;;;;4999018;28;20046;-61
2022/04/16 01:38:08;;;;;;;26.83;17.50;;;8.60;99.90;;;;;;5001198;28;20103;-60
2022/04/16 01:40:34;;;;;;;20.90;14.57;;;8.60;99.90;;;;;;5003841;28;20314;-60
2022/04/16 01:43:00;;;;;;;24.23;17.13;;;8.60;99.90;;;;;;5010964;28;20388;-59
2022/04/16 01:45:26;;;;;;;24.23;16.83;;;8.60;99.90;;;;;;5007030;28;20033;-60
2022/04/16 01:47:52;;;;;;;21.38;16.10;;;8.60;99.90;;;;;;5001567;28;20049;-60
2022/04/16 01:50:19;;;;;;;21.25;16.05;;;8.60;99.90;;;;;;5002250;28;20111;-61
2022/04/16 01:52:45;;;;;;;25.83;18.58;;;8.60;99.90;;;;;;5000264;28;20527;-59
2022/04/16 01:55:12;;;;;;;26.17;18.20;;;8.60;99.90;;;;;;5003597;28;20033;-61
2022/04/16 01:57:38;;;;;;;21.52;16.70;;;8.60;99.90;;;;;;5006012;28;20048;-61
2022/04/16 02:00:09;;;;;;;22.88;15.60;;;8.60;99.90;;;;;;4996027;28;20038;-59
2022/04/16 02:02:36;;;;;;;24.20;16.45;;;8.60;99.90;;;;;;5008227;28;20049;-59
2022/04/16 02:05:06;;;;;;;26.20;20.15;;;8.60;99.90;;;;;;5007044;28;20034;-60
2022/04/16 02:07:32;;;;;;;23.40;17.88;;;8.60;99.90;;;;;;4989476;28;20049;-60
2022/04/16 02:09:58;;;;;;;26.63;19.63;;;8.50;99.90;;;;;;5006628;28;20037;-61
2022/04/16 02:12:24;;;;;;;26.17;19.13;;;8.50;99.90;;;;;;5007860;28;20038;-59
2022/04/16 02:14:50;;;;;;;25.95;18.08;;;8.40;99.90;;;;;;5007067;28;20038;-59
2022/04/16 02:17:16;;;;;;;23.98;16.60;;;8.40;99.90;;;;;;5003812;28;20099;-59
2022/04/16 02:19:41;;;;;;;29.45;19.60;;;8.30;99.90;;;;;;5006202;28;21194;-60
2022/04/16 02:22:07;;;;;;;27.25;19.85;;;8.30;99.90;;;;;;5001015;28;20400;-61
2022/04/16 02:24:33;;;;;;;27.88;19.05;;;8.20;99.90;;;;;;5013564;28;20124;-60
2022/04/16 02:26:59;;;;;;;20.52;15.65;;;8.20;99.90;;;;;;5016493;28;20475;-60
2022/04/16 02:29:25;;;;;;;25.33;18.05;;;8.10;99.90;;;;;;5009455;28;20068;-59
2022/04/16 02:31:51;;;;;;;20.65;15.23;;;8.10;99.90;;;;;;4997367;28;20056;-60
2022/04/16 02:34:19;;;;;;;23.02;16.60;;;8.00;99.90;;;;;;5008969;28;20034;-60
2022/04/16 02:36:44;;;;;;;20.52;14.13;;;8.00;99.90;;;;;;5004819;28;20049;-61
2022/04/16 02:39:10;;;;;;;25.33;18.42;;;8.00;99.90;;;;;;5007433;28;20050;-61
2022/04/16 02:41:36;;;;;;;26.67;18.15;;;7.90;99.90;;;;;;5004147;28;20259;-61
2022/04/16 02:44:02;;;;;;;19.55;15.27;;;7.90;99.90;;;;;;5007768;28;20037;-59
2022/04/16 02:49:15;;;;;;;24.73;16.58;;;7.80;99.90;;;;;;5015962;28;20041;-60
2022/04/16 02:51:42;;;;;;;24.58;16.38;;;7.70;99.90;;;;;;4987858;28;20052;-60
2022/04/16 02:54:07;;;;;;;22.52;16.40;;;7.70;99.90;;;;;;5003936;28;20045;-61
2022/04/16 02:56:33;;;;;;;30.70;19.23;;;7.70;99.90;;;;;;5002551;28;20058;-60
2022/04/16 02:58:59;;;;;;;22.35;17.08;;;7.70;99.90;;;;;;4982749;28;20049;-61
2022/04/16 03:01:25;;;;;;;19.85;15.40;;;7.70;99.90;;;;;;5002813;28;20034;-61
2022/04/16 03:03:50;;;;;;;23.58;17.15;;;7.60;99.90;;;;;;5005879;28;20048;-59
2022/04/16 03:06:16;;;;;;;24.48;18.48;;;7.60;99.90;;;;;;5009102;28;20037;-61
2022/04/16 03:08:42;;;;;;;26.38;17.75;;;7.60;99.90;;;;;;5005612;28;20069;-61
2022/04/16 03:11:08;;;;;;;24.58;16.73;;;7.60;99.90;;;;;;5009387;28;20065;-60
2022/04/16 03:13:36;;;;;;;25.20;17.92;;;7.60;99.90;;;;;;5004694;28;20041;-61
2022/04/16 03:18:47;;;;;;;22.63;17.10;;;7.50;99.90;;;;;;5003781;28;20128;-60
2022/04/16 03:21:13;;;;;;;28.17;18.85;;;7.40;99.90;;;;;;5005661;28;20314;-61
2022/04/16 03:23:39;;;;;;;24.02;18.73;;;7.40;99.90;;;;;;5001062;28;20748;-61
2022/04/16 03:26:06;;;;;;;20.90;15.75;;;7.30;99.90;;;;;;5005294;28;20600;-61
2022/04/16 03:28:32;;;;;;;24.35;18.02;;;7.30;99.90;;;;;;4968520;28;20196;-61
2022/04/16 03:30:58;;;;;;;24.67;14.95;;;7.20;99.90;;;;;;4990388;28;20057;-61
2022/04/16 03:33:24;;;;;;;26.20;17.90;;;7.20;99.90;;;;;;5005123;28;20037;-58
2022/04/16 03:35:51;;;;;;;32.13;19.95;;;7.20;99.90;;;;;;5001450;28;20443;-59
2022/04/16 03:38:18;;;;;;;26.48;19.33;;;7.20;99.90;;;;;;5001598;28;20498;-60
2022/04/16 03:40:44;;;;;;;29.45;19.60;;;7.20;99.90;;;;;;4996429;28;20045;-61
2022/04/16 03:43:10;;;;;;;29.30;19.35;;;7.10;99.90;;;;;;5004937;28;20034;-61
2022/04/16 03:45:37;;;;;;;27.33;19.73;;;7.10;99.90;;;;;;5005236;28;20152;-60
2022/04/16 03:48:05;;;;;;;26.75;19.95;;;7.10;99.90;;;;;;5010997;28;20050;-60
2022/04/16 03:50:31;;;;;;;23.45;17.40;;;7.10;99.90;;;;;;5001236;28;20050;-60
2022/04/16 03:52:58;;;;;;;24.45;18.08;;;7.20;99.90;;;;;;5003994;28;20045;-60
2022/04/16 04:00:59;;;;;;;27.48;19.63;;;7.20;99.90;;;;;;5004301;28;20092;-61
2022/04/16 04:03:25;;;;;;;28.50;20.17;;;7.20;99.90;;;;;;5024934;28;20042;-57
2022/04/16 04:05:53;;;;;;;27.88;19.75;;;7.30;99.90;;;;;;5005958;28;20042;-59
2022/04/16 04:08:20;;;;;;;27.80;21.10;;;7.30;99.90;;;;;;5010196;28;20483;-59
2022/04/16 04:10:47;;;;;;;27.02;20.17;;;7.40;99.90;;;;;;4998887;28;20678;-60
2022/04/16 04:13:13;;;;;;;32.05;20.92;;;7.40;99.90;;;;;;5005473;28;20100;-59
2022/04/16 04:15:40;;;;;;;30.15;19.58;;;7.40;99.90;;;;;;4998371;28;20037;-58
2022/04/16 04:18:06;;;;;;;38.78;24.95;;;7.40;99.90;;;;;;5006577;28;20037;-58
2022/04/16 04:20:31;;;;;;;31.67;20.50;;;7.40;99.90;;;;;;5003874;28;20080;-58
2022/04/16 04:22:57;;;;;;;37.63;23.88;;;7.40;99.90;;;;;;5004033;28;20041;-60
2022/04/16 04:25:23;;;;;;;33.75;24.80;;;7.40;99.90;;;;;;5007210;28;20045;-59
2022/04/16 04:27:49;;;;;;;38.67;23.85;;;7.40;99.90;;;;;;4998860;28;20423;-59
2022/04/16 04:30:16;;;;;;;38.30;25.50;;;7.30;99.90;;;;;;5006082;28;20049;-59
2022/04/16 04:32:42;;;;;;;38.15;25.52;;;7.40;99.90;;;;;;5005042;28;20124;-60
2022/04/16 04:35:09;;;;;;;34.38;23.45;;;7.30;99.90;;;;;;5003687;28;20057;-59
2022/04/16 04:37:35;;;;;;;39.53;25.42;;;7.30;99.90;;;;;;5004988;28;20424;-59
2022/04/16 04:40:01;;;;;;;37.15;24.25;;;7.30;99.90;;;;;;5000706;28;20444;-58
2022/04/16 04:42:29;;;;;;;34.03;23.20;;;7.30;99.90;;;;;;4998288;28;20046;-59
2022/04/16 04:44:56;;;;;;;34.70;24.10;;;7.40;99.90;;;;;;5003329;28;20404;-58
2022/04/16 04:47:22;;;;;;;35.53;23.25;;;7.30;99.90;;;;;;4996693;28;20511;-60
2022/04/16 04:49:48;;;;;;;37.22;24.35;;;7.40;99.90;;;;;;5007656;28;20124;-62
2022/04/16 04:52:21;;;;;;;32.85;22.50;;;7.40;99.90;;;;;;5011431;28;20042;-64
2022/04/16 04:54:47;;;;;;;32.60;22.97;;;7.40;99.90;;;;;;5004303;28;20036;-63
2022/04/16 04:57:13;;;;;;;37.38;25.90;;;7.40;99.90;;;;;;4999344;28;20689;-62
2022/04/16 04:59:39;;;;;;;40.83;25.38;;;7.40;99.90;;;;;;5009236;28;20045;-63
2022/04/16 05:02:05;;;;;;;38.50;25.77;;;7.40;99.90;;;;;;5009692;28;20049;-63
2022/04/16 05:04:32;;;;;;;38.42;26.17;;;7.50;99.90;;;;;;5008605;28;20048;-63
2022/04/16 05:06:57;;;;;;;35.63;25.17;;;7.50;99.90;;;;;;5005882;28;20182;-59
2022/04/16 05:09:24;;;;;;;39.00;26.48;;;7.50;99.90;;;;;;5009453;28;20422;-63
2022/04/16 05:11:50;;;;;;;42.17;27.67;;;7.50;99.90;;;;;;5005511;28;20045;-62
2022/04/16 05:14:16;;;;;;;36.28;25.05;;;7.50;99.90;;;;;;4999214;28;20064;-63
2022/04/16 05:16:42;;;;;;;40.05;26.17;;;7.50;99.90;;;;;;4999297;28;20049;-64
2022/04/16 05:19:07;;;;;;;38.70;25.95;;;7.60;99.90;;;;;;4999006;28;20046;-64
2022/04/16 05:21:33;;;;;;;34.90;24.25;;;7.60;99.90;;;;;;5011166;28;20639;-64
2022/04/16 05:24:00;;;;;;;39.75;28.02;;;7.60;99.90;;;;;;5002094;28;20038;-59
2022/04/16 05:26:26;;;;;;;42.92;29.95;;;7.70;99.90;;;;;;5006909;28;20039;-59
2022/04/16 05:28:51;;;;;;;45.38;29.83;;;7.70;99.90;;;;;;5006865;28;20396;-58
2022/04/16 05:31:19;;;;;;;43.13;29.42;;;7.70;99.90;;;;;;5004655;28;20095;-63
2022/04/16 05:36:29;;;;;;;45.50;31.88;;;7.80;99.90;;;;;;5002313;28;20265;-61
2022/04/16 05:38:55;;;;;;;48.25;32.97;;;7.90;99.90;;;;;;4985981;28;20249;-58
2022/04/16 05:41:21;;;;;;;50.78;32.60;;;7.90;99.90;;;;;;5001619;28;20053;-60
2022/04/16 05:43:48;;;;;;;48.50;33.17;;;8.00;99.90;;;;;;5006182;28;20064;-63
2022/04/16 05:46:13;;;;;;;55.40;34.17;;;8.00;99.90;;;;;;5004029;28;20524;-62
2022/04/16 05:48:39;;;;;;;52.47;35.05;;;7.90;99.90;;;;;;4971501;28;20113;-61
2022/04/16 05:51:05;;;;;;;55.58;34.78;;;8.00;99.90;;;;;;5002307;28;20431;-63
2022/04/16 05:53:31;;;;;;;52.60;34.63;;;8.00;99.90;;;;;;5000472;28;20038;-63
2022/04/16 05:55:58;;;;;;;52.75;36.10;;;8.00;99.90;;;;;;5007730;28;20565;-64
2022/04/16 05:58:24;;;;;;;51.92;34.75;;;8.00;99.90;;;;;;5015473;28;20104;-62
2022/04/16 06:00:49;;;;;;;52.75;35.13;;;8.00;99.90;;;;;;4998295;28;20081;-62
2022/04/16 06:03:15;;;;;;;52.38;35.08;;;8.10;99.90;;;;;;4994518;28;20046;-65
2022/04/16 06:05:41;;;;;;;49.42;35.13;;;8.10;99.90;;;;;;5009978;28;20048;-65
2022/04/16 06:08:07;;;;;;;55.55;34.20;;;8.10;99.90;;;;;;5025486;28;20041;-64
2022/04/16 06:10:33;;;;;;;49.15;34.28;;;8.10;99.90;;;;;;5005436;28;20034;-63
2022/04/16 06:12:58;;;;;;;49.42;34.60;;;8.20;99.90;;;;;;4992999;28;20079;-65
2022/04/16 06:15:24;;;;;;;48.63;33.70;;;8.20;99.90;;;;;;4995032;28;20672;-66
2022/04/16 06:17:50;;;;;;;42.53;30.77;;;8.20;99.90;;;;;;5000488;28;20507;-67
2022/04/16 06:20:16;;;;;;;44.45;30.25;;;8.20;99.90;;;;;;4996488;28;20046;-65
2022/04/16 06:22:42;;;;;;;41.85;29.23;;;8.30;99.90;;;;;;5007055;28;20041;-62
2022/04/16 06:25:08;;;;;;;44.22;30.17;;;8.30;99.90;;;;;;4995982;28;20042;-63
2022/04/16 06:27:38;;;;;;;39.97;27.88;;;8.40;99.90;;;;;;4991037;28;20034;-62
2022/04/16 06:30:09;;;;;;;40.75;28.88;;;8.40;99.90;;;;;;4994523;28;20411;-64
2022/04/16 06:32:35;;;;;;;38.80;27.92;;;8.50;99.90;;;;;;4986458;28;20076;-67
2022/04/16 06:35:05;;;;;;;37.45;27.08;;;8.50;99.90;;;;;;4986392;28;20613;-66
2022/04/16 06:37:41;;;;;;;35.95;25.40;;;8.60;99.90;;;;;;4990140;28;20041;-64
2022/04/16 06:40:09;;;;;;;28.45;19.58;;;8.70;99.90;;;;;;4980883;28;20049;-65
2022/04/16 06:42:35;;;;;;;26.63;18.65;;;8.60;99.90;;;;;;4995935;28;20139;-63
2022/04/16 06:45:00;;;;;;;26.73;18.80;;;8.50;99.90;;;;;;4999626;28;20056;-62
2022/04/16 06:47:29;;;;;;;26.60;18.80;;;8.60;99.90;;;;;;4999119;28;20124;-66
2022/04/16 06:49:55;;;;;;;26.48;18.08;;;8.60;99.90;;;;;;4986197;28;20049;-66
2022/04/16 06:52:21;;;;;;;25.30;16.92;;;8.60;99.90;;;;;;5001069;28;20040;-66
2022/04/16 06:54:47;;;;;;;28.83;19.40;;;8.70;99.90;;;;;;5002781;28;20042;-62
2022/04/16 06:57:13;;;;;;;22.52;17.35;;;8.70;99.90;;;;;;4994011;28;20041;-63
2022/04/16 06:59:39;;;;;;;24.90;16.40;;;8.70;99.90;;;;;;4993918;28;20580;-66
2022/04/16 07:02:06;;;;;;;33.72;23.17;;;8.80;99.90;;;;;;4989925;28;20123;-66
2022/04/16 07:04:32;;;;;;;24.42;17.65;;;8.90;99.90;;;;;;4992194;28;20048;-66
2022/04/16 07:06:58;;;;;;;23.17;15.60;;;8.80;99.90;;;;;;4999022;28;20076;-62
2022/04/16 07:09:24;;;;;;;19.45;14.52;;;8.90;99.90;;;;;;4997188;28;20176;-64
2022/04/16 07:11:50;;;;;;;20.90;14.77;;;8.90;99.90;;;;;;5000887;28;20041;-66
2022/04/16 07:14:16;;;;;;;19.70;14.15;;;8.90;99.90;;;;;;4988552;28;20049;-66
2022/04/16 07:16:42;;;;;;;21.98;14.25;;;8.90;99.90;;;;;;4993892;28;20080;-62
2022/04/16 07:19:09;;;;;;;18.92;13.50;;;9.00;99.90;;;;;;4993001;28;20358;-67
2022/04/16 07:21:35;;;;;;;22.50;14.70;;;9.00;99.90;;;;;;4997958;28;20127;-65
2022/04/16 07:24:00;;;;;;;17.85;13.63;;;9.10;99.90;;;;;;4985484;28;20060;-66
2022/04/16 07:26:26;;;;;;;21.92;14.02;;;9.10;99.90;;;;;;4995634;28;20030;-66
2022/04/16 07:28:52;;;;;;;18.42;13.35;;;9.20;99.90;;;;;;4994854;28;20045;-65
2022/04/16 07:31:18;;;;;;;18.48;13.18;;;9.30;99.90;;;;;;4992165;28;20524;-64
2022/04/16 07:33:44;;;;;;;23.55;13.70;;;9.50;99.90;;;;;;4990902;28;20050;-62
2022/04/16 07:36:09;;;;;;;23.33;13.45;;;9.60;99.90;;;;;;5003082;28;20132;-62
2022/04/16 07:38:35;;;;;;;18.98;13.43;;;9.70;99.90;;;;;;4993130;28;20276;-61
2022/04/16 07:41:02;;;;;;;19.02;13.70;;;9.80;99.90;;;;;;4990449;28;20140;-63
2022/04/16 07:43:29;;;;;;;18.77;13.23;;;9.90;99.90;;;;;;4984739;28;20041;-63
2022/04/16 07:45:55;;;;;;;17.88;13.70;;;9.90;99.90;;;;;;4986235;28;20068;-64
2022/04/16 07:48:21;;;;;;;18.42;13.20;;;10.00;99.90;;;;;;4992621;28;20077;-62
2022/04/16 07:50:47;;;;;;;18.25;12.95;;;10.00;99.90;;;;;;5000604;28;20137;-62
2022/04/16 07:53:12;;;;;;;20.50;14.10;;;10.10;99.90;;;;;;4997499;28;20050;-67
2022/04/16 07:55:38;;;;;;;20.08;14.35;;;10.20;99.90;;;;;;4998679;28;20040;-62
2022/04/16 07:58:04;;;;;;;20.17;12.77;;;10.20;99.90;;;;;;5005607;28;20104;-65
2022/04/16 08:00:30;;;;;;;18.95;12.07;;;10.30;99.90;;;;;;4993164;28;20554;-65
2022/04/16 08:02:56;;;;;;;19.55;12.18;;;10.40;99.90;;;;;;4999207;28;20164;-64
2022/04/16 08:05:21;;;;;;;19.60;12.38;;;10.50;99.90;;;;;;4994407;28;20037;-64
2022/04/16 08:07:47;;;;;;;17.38;12.77;;;10.60;99.90;;;;;;5002295;28;20042;-63
2022/04/16 08:10:13;;;;;;;18.95;12.35;;;10.80;99.90;;;;;;4983464;28;20497;-63
2022/04/16 08:12:39;;;;;;;17.50;12.40;;;11.00;99.90;;;;;;4980491;28;20054;-66
2022/04/16 08:15:06;;;;;;;16.60;12.02;;;10.90;99.90;;;;;;5002383;28;20049;-64
2022/04/16 08:17:32;;;;;;;14.38;9.98;;;11.00;99.90;;;;;;4981020;28;20076;-63
2022/04/16 08:19:58;;;;;;;14.00;10.07;;;11.00;99.90;;;;;;4983406;28;20586;-62
2022/04/16 08:22:24;;;;;;;14.07;9.93;;;11.10;99.90;;;;;;5005327;28;20053;-60
2022/04/16 08:27:35;;;;;;;15.43;10.15;;;11.10;99.90;;;;;;5004991;28;20050;-63
2022/04/16 08:30:01;;;;;;;14.52;10.15;;;11.20;99.90;;;;;;5000700;28;20387;-61
2022/04/16 08:32:27;;;;;;;14.82;10.00;;;11.30;99.90;;;;;;5003614;28;20038;-63
2022/04/16 08:34:52;;;;;;;16.50;10.57;;;11.50;99.90;;;;;;5008612;28;20495;-58
2022/04/16 08:37:18;;;;;;;15.35;9.18;;;11.70;99.90;;;;;;4997110;28;20037;-62
2022/04/16 08:39:45;;;;;;;12.80;9.48;;;11.80;99.90;;;;;;4997392;28;21488;-63
2022/04/16 08:42:11;;;;;;;12.43;9.05;;;11.80;99.90;;;;;;5013680;28;20277;-61
2022/04/16 08:44:39;;;;;;;13.93;8.68;;;11.90;99.90;;;;;;5003317;28;20453;-61
2022/04/16 08:47:05;;;;;;;12.60;8.23;;;12.00;99.90;;;;;;5009617;28;20036;-63
2022/04/16 08:49:33;;;;;;;14.20;9.50;;;12.00;99.80;;;;;;4999787;28;20046;-61
2022/04/16 08:51:59;;;;;;;13.57;9.05;;;12.10;99.90;;;;;;5002692;28;20488;-60
2022/04/16 08:54:25;;;;;;;12.35;8.50;;;12.30;99.40;;;;;;4996698;28;20037;-60
2022/04/16 08:56:51;;;;;;;13.15;8.85;;;12.30;99.10;;;;;;4986259;28;20736;-63
2022/04/16 08:59:17;;;;;;;12.02;8.65;;;12.30;98.90;;;;;;4986522;28;20142;-62
2022/04/16 09:01:43;;;;;;;16.80;8.55;;;12.30;99.10;;;;;;4987837;28;20516;-63
2022/04/16 09:04:22;;;;;;;13.95;8.75;;;12.30;98.20;;;;;;4999002;28;20034;-63
2022/04/16 09:06:59;;;;;;;12.98;8.07;;;12.40;98.10;;;;;;4998470;28;20041;-65
2022/04/16 09:09:25;;;;;;;12.60;8.55;;;12.50;98.30;;;;;;4997299;28;20056;-61
2022/04/16 09:11:51;;;;;;;10.70;7.40;;;12.40;98.00;;;;;;4998966;28;20573;-62
2022/04/16 09:14:16;;;;;;;11.73;8.35;;;12.50;98.20;;;;;;5003839;28;20125;-62
2022/04/16 09:16:42;;;;;;;11.32;6.65;;;12.60;97.40;;;;;;4998932;28;20065;-63
2022/04/16 09:19:21;;;;;;;7.85;5.55;;;12.70;97.10;;;;;;5004947;28;20473;-62
2022/04/16 09:21:47;;;;;;;9.43;5.40;;;12.80;96.80;;;;;;5006027;28;20392;-64
2022/04/16 09:24:13;;;;;;;8.02;5.43;;;13.00;96.70;;;;;;4992174;28;20131;-61
2022/04/16 09:26:40;;;;;;;12.50;5.60;;;13.10;95.40;;;;;;5018273;28;20052;-63
2022/04/16 09:29:10;;;;;;;6.07;4.80;;;13.30;95.40;;;;;;5004522;28;20048;-65
2022/04/16 09:31:40;;;;;;;8.90;5.55;;;13.30;92.80;;;;;;5014884;28;20534;-60
2022/04/16 09:34:14;;;;;;;7.30;4.82;;;13.30;92.90;;;;;;5013809;28;20096;-62
2022/04/16 09:36:40;;;;;;;8.00;4.78;;;13.40;92.50;;;;;;5008028;28;20037;-61
2022/04/16 09:39:07;;;;;;;5.40;3.65;;;13.30;92.50;;;;;;5010046;28;20034;-58
2022/04/16 09:41:34;;;;;;;5.97;4.05;;;13.50;91.20;;;;;;5001162;28;20049;-61
2022/04/16 09:44:01;;;;;;;10.00;4.88;;;13.50;91.20;;;;;;4984362;28;20069;-64
2022/04/16 09:46:29;;;;;;;8.10;5.05;;;13.50;90.50;;;;;;4995188;28;22605;-61
2022/04/16 09:49:00;;;;;;;7.47;4.70;;;13.60;91.60;;;;;;4993748;28;20053;-64
2022/04/16 09:51:26;;;;;;;7.10;4.95;;;13.80;91.50;;;;;;4986760;28;21444;-64
2022/04/16 09:53:53;;;;;;;9.40;5.63;;;13.90;91.20;;;;;;4992272;28;20495;-61
2022/04/16 09:56:22;;;;;;;10.18;5.13;;;14.00;90.00;;;;;;4989201;28;20606;-65
2022/04/16 09:58:54;;;;;;;8.27;5.55;;;13.90;90.40;;;;;;4995410;28;20120;-61
2022/04/16 10:01:24;;;;;;;8.68;5.85;;;14.00;90.50;;;;;;5002322;28;20111;-62
2022/04/16 10:03:52;;;;;;;8.50;5.43;;;14.20;90.70;;;;;;4987896;28;20404;-61
2022/04/16 10:06:20;;;;;;;7.63;5.00;;;14.40;91.60;;;;;;4996548;28;20042;-62
2022/04/16 10:08:49;;;;;;;7.40;5.35;;;14.60;91.10;;;;;;4996779;28;20593;-65
2022/04/16 10:11:21;;;;;;;7.13;4.93;;;14.60;88.80;;;;;;4996523;28;20045;-62
2022/04/16 10:14:00;;;;;;;5.22;3.92;;;14.50;86.70;;;;;;4993052;28;20050;-63
2022/04/16 10:17:09;;;;;;;6.70;3.92;;;14.40;82.50;;;;;;4985465;28;20098;-62
2022/04/16 10:19:39;;;;;;;9.38;3.72;;;14.30;83.70;;;;;;4975365;28;20096;-65
2022/04/16 10:22:05;;;;;;;5.85;3.67;;;14.30;84.50;;;;;;4959486;28;20100;-65
2022/04/16 10:24:31;;;;;;;4.10;2.65;;;14.60;85.50;;;;;;4999400;28;20120;-62
2022/04/16 10:27:04;;;;;;;4.07;2.90;;;14.80;81.70;;;;;;4997851;28;20567;-64
2022/04/16 10:29:39;;;;;;;4.60;3.10;;;15.10;83.00;;;;;;4995468;28;20042;-61
2022/04/16 10:32:18;;;;;;;5.63;2.70;;;15.10;77.70;;;;;;5011510;28;20503;-65
2022/04/16 10:34:45;;;;;;;5.63;2.55;;;14.90;76.40;;;;;;5004190;28;20513;-62
2022/04/16 10:37:24;;;;;;;4.53;3.00;;;14.90;76.10;;;;;;4988618;28;20174;-63
2022/04/16 10:39:53;;;;;;;4.38;3.13;;;14.80;74.40;;;;;;5000187;28;20037;-61
2022/04/16 10:42:32;;;;;;;5.47;3.80;;;14.70;76.70;;;;;;5002947;28;20045;-62
2022/04/16 10:45:11;;;;;;;5.65;3.55;;;14.70;74.90;;;;;;5001070;28;20054;-63
2022/04/16 10:47:38;;;;;;;4.28;2.72;;;14.70;73.20;;;;;;4992451;28;20049;-64
2022/04/16 10:50:23;;;;;;;4.47;2.95;;;14.70;72.50;;;;;;4996805;28;20049;-62
2022/04/16 10:52:57;;;;;;;5.70;3.42;;;14.60;72.00;;;;;;5006165;28;20416;-61
2022/04/16 10:55:30;;;;;;;4.10;2.60;;;14.80;75.80;;;;;;5002451;28;20045;-63
2022/04/16 10:58:07;;;;;;;3.28;2.20;;;15.10;76.40;;;;;;4998229;28;20037;-63
2022/04/16 11:00:41;;;;;;;3.50;1.73;;;15.40;72.80;;;;;;4972163;28;20497;-64
2022/04/16 11:03:26;;;;;;;3.92;1.92;;;15.60;72.30;;;;;;4997477;28;20123;-63
2022/04/16 11:06:03;;;;;;;4.15;2.80;;;15.60;70.90;;;;;;5003191;28;20499;-61
2022/04/16 11:08:33;;;;;;;3.95;2.78;;;15.80;73.60;;;;;;5004108;28;20120;-64
2022/04/16 11:10:58;;;;;;;4.22;2.22;;;15.90;74.40;;;;;;5011261;22;20255;-58
2022/04/16 11:13:33;;;;;;;4.65;2.97;;;16.20;72.40;;;;;;5000356;28;20093;-59
2022/04/16 11:15:59;;;;;;;4.47;2.42;;;16.30;71.70;;;;;;4992027;28;20138;-58
2022/04/16 11:18:26;;;;;;;5.63;2.47;;;16.30;71.70;;;;;;5003979;28;20450;-57
2022/04/16 11:20:58;;;;;;;4.60;2.90;;;16.30;69.50;;;;;;4997636;28;21960;-59
2022/04/16 11:23:27;;;;;;;4.40;2.90;;;16.30;70.10;;;;;;5023577;28;20069;-59
2022/04/16 11:34:17;;;;;;;5.53;2.90;;;16.30;68.70;;;;;;5019618;28;20553;-60
2022/04/16 11:36:52;;;;;;;5.18;2.50;;;16.10;67.40;;;;;;5014053;28;20317;-59
2022/04/16 11:39:18;;;;;;;3.38;2.08;;;16.00;66.50;;;;;;5008011;28;20463;-60
2022/04/16 11:41:53;;;;;;;4.60;2.30;;;16.10;67.90;;;;;;5004551;28;20076;-60
2022/04/16 11:44:33;;;;;;;2.58;1.85;;;16.30;66.50;;;;;;5008294;28;20083;-60
2022/04/16 11:47:02;;;;;;;3.50;1.77;;;16.10;65.50;;;;;;5010559;28;20491;-59
2022/04/16 11:49:29;;;;;;;6.65;2.50;;;16.30;64.80;;;;;;5018707;28;20152;-59
2022/04/16 11:51:55;;;;;;;10.32;9.43;;;16.10;62.50;;;;;;5015767;28;20115;-60
2022/04/16 11:54:28;;;;;;;5.40;3.70;;;16.10;65.70;;;;;;5019286;28;20041;-60
2022/04/16 11:56:57;;;;;;;152.77;18.97;;;16.30;64.90;;;;;;5019705;28;20041;-61
2022/04/16 11:59:24;;;;;;;170.98;20.33;;;16.40;63.90;;;;;;5018093;28;20316;-59
2022/04/16 12:01:58;;;;;;;3.58;2.10;;;16.30;62.90;;;;;;5017132;28;20432;-60
2022/04/16 12:04:43;;;;;;;4.07;2.10;;;16.20;60.90;;;;;;5017588;28;20414;-59
2022/04/16 12:07:17;;;;;;;5.15;2.38;;;15.90;60.10;;;;;;4945894;22;20061;-67
2022/04/16 12:09:44;;;;;;;2.53;1.60;;;16.10;63.10;;;;;;4961567;28;20039;-67
2022/04/16 12:12:21;;;;;;;3.17;1.95;;;16.20;59.10;;;;;;4946843;28;20832;-67
2022/04/16 12:14:52;;;;;;;4.18;1.65;;;16.20;58.00;;;;;;4940944;28;20085;-66
2022/04/16 12:17:21;;;;;;;2.55;1.70;;;16.30;57.00;;;;;;4948318;28;20137;-66
2022/04/16 12:19:55;;;;;;;2.30;1.10;;;16.30;57.80;;;;;;4940568;28;20098;-66
2022/04/16 12:22:20;;;;;;;2.22;1.30;;;16.30;53.60;;;;;;4951293;28;20674;-66
2022/04/16 12:24:46;;;;;;;2.80;1.60;;;16.30;56.50;;;;;;4952645;28;20086;-66
2022/04/16 12:27:23;;;;;;;2.22;1.20;;;16.60;54.50;;;;;;4947724;28;20050;-67
2022/04/16 12:29:49;;;;;;;2.60;1.20;;;16.70;55.30;;;;;;4942749;28;20046;-66
2022/04/16 12:32:25;;;;;;;1.35;1.02;;;16.70;51.60;;;;;;4947057;28;20069;-67
2022/04/16 12:34:51;;;;;;;3.28;1.45;;;16.60;49.80;;;;;;4960015;28;20042;-65
2022/04/16 12:37:17;;;;;;;3.55;1.10;;;16.60;51.70;;;;;;4968588;28;20053;-67
2022/04/16 12:39:42;;;;;;;2.40;1.10;;;16.60;50.10;;;;;;4985194;28;20122;-67
2022/04/16 12:42:08;;;;;;;1.17;0.90;;;16.70;50.40;;;;;;4952657;28;20126;-66
2022/04/16 12:44:34;;;;;;;1.98;0.90;;;16.80;51.10;;;;;;4945476;28;20039;-66
2022/04/16 12:46:59;;;;;;;3.45;0.80;;;16.90;48.80;;;;;;4953259;28;20057;-66
2022/04/16 12:49:25;;;;;;;1.38;0.75;;;17.00;49.10;;;;;;4954421;28;20514;-66
2022/04/16 12:51:51;;;;;;;1.50;0.80;;;17.10;47.80;;;;;;4938279;28;20121;-66
2022/04/16 12:54:17;;;;;;;1.63;1.10;;;17.30;48.10;;;;;;4952554;28;20494;-66
2022/04/16 12:56:43;;;;;;;2.80;1.02;;;17.30;47.50;;;;;;4929518;28;20061;-68
2022/04/16 12:59:09;;;;;;;1.65;0.85;;;17.20;45.10;;;;;;4934411;28;20043;-66
2022/04/16 13:01:35;;;;;;;1.00;0.85;;;17.30;46.70;;;;;;4940400;28;20153;-66
2022/04/16 13:04:01;;;;;;;1.15;0.60;;;17.30;45.90;;;;;;4940619;28;20493;-66